sensor_id;sensor_type;location;lat;lon;timestamp;P1;durP1;ratioP1;P2;durP2;ratioP2
11604;SDS011;5858;43.076;25.626;2024-02-26T00:02:33;5.87;;;3.30;;
11604;SDS011;5858;43.076;25.626;2024-02-26T00:05:09;4.53;;;2.67;;
11604;SDS011;5858;43.076;25.626;2024-02-26T00:07:51;6.67;;;3.27;;
11604;SDS011;5858;43.076;25.626;2024-02-26T00:10:24;4.77;;;2.90;;
11604;SDS011;5858;43.076;25.626;2024-02-26T00:12:55;4.00;;;2.70;;
11604;SDS011;5858;43.076;25.626;2024-02-26T00:15:33;3.93;;;2.67;;
11604;SDS011;5858;43.076;25.626;2024-02-26T00:18:14;4.40;;;2.80;;
11604;SDS011;5858;43.076;25.626;2024-02-26T00:23:55;5.93;;;2.87;;
11604;SDS011;5858;43.076;25.626;2024-02-26T00:26:36;4.53;;;2.47;;
11604;SDS011;5858;43.076;25.626;2024-02-26T00:29:40;4.67;;;2.43;;
11604;SDS011;5858;43.076;25.626;2024-02-26T00:32:15;3.80;;;2.47;;
11604;SDS011;5858;43.076;25.626;2024-02-26T00:38:49;4.37;;;2.23;;
11604;SDS011;5858;43.076;25.626;2024-02-26T00:41:37;4.50;;;2.07;;
11604;SDS011;5858;43.076;25.626;2024-02-26T00:47:27;6.63;;;2.67;;
11604;SDS011;5858;43.076;25.626;2024-02-26T01:04:24;3.10;;;1.77;;
11604;SDS011;5858;43.076;25.626;2024-02-26T01:07:50;2.47;;;1.77;;
11604;SDS011;5858;43.076;25.626;2024-02-26T01:24:46;2.50;;;2.30;;
11604;SDS011;5858;43.076;25.626;2024-02-26T01:38:27;9.23;;;5.60;;
11604;SDS011;5858;43.076;25.626;2024-02-26T01:41:24;8.00;;;5.23;;
11604;SDS011;5858;43.076;25.626;2024-02-26T01:44:38;14.17;;;6.60;;
11604;SDS011;5858;43.076;25.626;2024-02-26T01:47:47;16.17;;;6.97;;
11604;SDS011;5858;43.076;25.626;2024-02-26T01:55:08;11.20;;;6.37;;
11604;SDS011;5858;43.076;25.626;2024-02-26T04:10:15;5.83;;;3.03;;
11604;SDS011;5858;43.076;25.626;2024-02-26T04:12:57;2.17;;;1.97;;
11604;SDS011;5858;43.076;25.626;2024-02-26T05:54:59;17.13;;;5.60;;
11604;SDS011;5858;43.076;25.626;2024-02-26T05:57:38;17.43;;;6.90;;
11604;SDS011;5858;43.076;25.626;2024-02-26T06:00:19;23.93;;;8.07;;
11604;SDS011;5858;43.076;25.626;2024-02-26T06:06:19;25.37;;;11.53;;
11604;SDS011;5858;43.076;25.626;2024-02-26T06:09:05;25.43;;;11.43;;
11604;SDS011;5858;43.076;25.626;2024-02-26T06:14:42;39.20;;;10.80;;
11604;SDS011;5858;43.076;25.626;2024-02-26T06:24:30;15.73;;;6.70;;
11604;SDS011;5858;43.076;25.626;2024-02-26T06:27:20;19.07;;;6.60;;
11604;SDS011;5858;43.076;25.626;2024-02-26T06:29:55;18.20;;;5.87;;
11604;SDS011;5858;43.076;25.626;2024-02-26T06:55:36;10.50;;;6.73;;
11604;SDS011;5858;43.076;25.626;2024-02-26T06:58:18;10.37;;;6.63;;
11604;SDS011;5858;43.076;25.626;2024-02-26T07:08:06;13.87;;;7.43;;
11604;SDS011;5858;43.076;25.626;2024-02-26T07:10:44;12.70;;;9.00;;
11604;SDS011;5858;43.076;25.626;2024-02-26T07:13:23;43.27;;;27.50;;
11604;SDS011;5858;43.076;25.626;2024-02-26T07:16:01;37.90;;;26.87;;
11604;SDS011;5858;43.076;25.626;2024-02-26T07:18:28;62.57;;;55.77;;
11604;SDS011;5858;43.076;25.626;2024-02-26T07:20:55;17.97;;;12.17;;
11604;SDS011;5858;43.076;25.626;2024-02-26T07:23:22;19.80;;;11.97;;
11604;SDS011;5858;43.076;25.626;2024-02-26T07:26:06;12.97;;;7.37;;
11604;SDS011;5858;43.076;25.626;2024-02-26T07:28:33;17.60;;;11.53;;
11604;SDS011;5858;43.076;25.626;2024-02-26T07:33:57;7.23;;;4.27;;
11604;SDS011;5858;43.076;25.626;2024-02-26T07:36:24;9.20;;;5.83;;
11604;SDS011;5858;43.076;25.626;2024-02-26T07:38:51;13.40;;;5.30;;
11604;SDS011;5858;43.076;25.626;2024-02-26T07:41:30;10.10;;;5.18;;
11604;SDS011;5858;43.076;25.626;2024-02-26T07:44:08;10.63;;;5.38;;
11604;SDS011;5858;43.076;25.626;2024-02-26T07:46:39;14.52;;;5.60;;
11604;SDS011;5858;43.076;25.626;2024-02-26T07:49:06;11.70;;;6.28;;
11604;SDS011;5858;43.076;25.626;2024-02-26T07:51:35;15.00;;;6.18;;
11604;SDS011;5858;43.076;25.626;2024-02-26T07:54:11;6.90;;;4.10;;
11604;SDS011;5858;43.076;25.626;2024-02-26T07:56:39;9.73;;;4.57;;
11604;SDS011;5858;43.076;25.626;2024-02-26T07:59:09;11.30;;;4.20;;
11604;SDS011;5858;43.076;25.626;2024-02-26T08:01:36;7.68;;;5.05;;
11604;SDS011;5858;43.076;25.626;2024-02-26T08:04:04;6.50;;;4.45;;
11604;SDS011;5858;43.076;25.626;2024-02-26T08:06:31;12.35;;;4.32;;
11604;SDS011;5858;43.076;25.626;2024-02-26T08:08:58;6.15;;;3.40;;
11604;SDS011;5858;43.076;25.626;2024-02-26T08:11:25;6.55;;;3.20;;
11604;SDS011;5858;43.076;25.626;2024-02-26T08:13:54;5.72;;;3.47;;
11604;SDS011;5858;43.076;25.626;2024-02-26T08:16:21;8.23;;;4.38;;
11604;SDS011;5858;43.076;25.626;2024-02-26T08:18:48;3.88;;;2.55;;
11604;SDS011;5858;43.076;25.626;2024-02-26T08:21:15;5.00;;;2.80;;
11604;SDS011;5858;43.076;25.626;2024-02-26T08:23:43;4.82;;;2.88;;
11604;SDS011;5858;43.076;25.626;2024-02-26T08:26:10;4.80;;;3.08;;
11604;SDS011;5858;43.076;25.626;2024-02-26T08:28:37;8.02;;;3.40;;
11604;SDS011;5858;43.076;25.626;2024-02-26T08:31:13;6.95;;;2.75;;
11604;SDS011;5858;43.076;25.626;2024-02-26T08:33:39;5.63;;;3.20;;
11604;SDS011;5858;43.076;25.626;2024-02-26T08:36:06;3.85;;;2.30;;
11604;SDS011;5858;43.076;25.626;2024-02-26T08:38:34;3.92;;;2.08;;
11604;SDS011;5858;43.076;25.626;2024-02-26T08:41:01;4.18;;;2.20;;
11604;SDS011;5858;43.076;25.626;2024-02-26T08:43:33;6.40;;;2.25;;
11604;SDS011;5858;43.076;25.626;2024-02-26T08:46:03;6.35;;;2.40;;
11604;SDS011;5858;43.076;25.626;2024-02-26T08:48:34;2.55;;;1.90;;
11604;SDS011;5858;43.076;25.626;2024-02-26T08:51:04;15.45;;;11.07;;
11604;SDS011;5858;43.076;25.626;2024-02-26T08:53:32;8.95;;;4.97;;
11604;SDS011;5858;43.076;25.626;2024-02-26T08:56:07;6.43;;;2.35;;
11604;SDS011;5858;43.076;25.626;2024-02-26T08:58:41;2.15;;;1.52;;
11604;SDS011;5858;43.076;25.626;2024-02-26T09:01:11;3.55;;;1.80;;
11604;SDS011;5858;43.076;25.626;2024-02-26T09:03:40;3.75;;;1.77;;
11604;SDS011;5858;43.076;25.626;2024-02-26T09:06:07;3.97;;;1.65;;
11604;SDS011;5858;43.076;25.626;2024-02-26T09:08:34;5.38;;;1.90;;
11604;SDS011;5858;43.076;25.626;2024-02-26T09:11:01;5.82;;;1.85;;
11604;SDS011;5858;43.076;25.626;2024-02-26T09:13:29;6.35;;;3.17;;
11604;SDS011;5858;43.076;25.626;2024-02-26T09:15:56;2.65;;;1.67;;
11604;SDS011;5858;43.076;25.626;2024-02-26T09:18:25;5.03;;;2.00;;
11604;SDS011;5858;43.076;25.626;2024-02-26T09:20:55;3.08;;;1.63;;
11604;SDS011;5858;43.076;25.626;2024-02-26T09:23:22;4.30;;;1.60;;
11604;SDS011;5858;43.076;25.626;2024-02-26T09:25:50;2.97;;;1.80;;
11604;SDS011;5858;43.076;25.626;2024-02-26T09:28:17;7.60;;;1.95;;
11604;SDS011;5858;43.076;25.626;2024-02-26T09:30:44;3.45;;;1.90;;
11604;SDS011;5858;43.076;25.626;2024-02-26T09:33:11;4.63;;;1.80;;
11604;SDS011;5858;43.076;25.626;2024-02-26T09:35:39;5.03;;;1.73;;
11604;SDS011;5858;43.076;25.626;2024-02-26T09:38:09;3.25;;;1.35;;
11604;SDS011;5858;43.076;25.626;2024-02-26T09:40:42;6.35;;;1.77;;
11604;SDS011;5858;43.076;25.626;2024-02-26T09:43:09;3.25;;;1.88;;
11604;SDS011;5858;43.076;25.626;2024-02-26T09:45:42;7.80;;;3.05;;
11604;SDS011;5858;43.076;25.626;2024-02-26T09:48:11;5.60;;;3.95;;
11604;SDS011;5858;43.076;25.626;2024-02-26T09:50:40;4.70;;;2.00;;
11604;SDS011;5858;43.076;25.626;2024-02-26T09:53:10;2.97;;;1.92;;
11604;SDS011;5858;43.076;25.626;2024-02-26T09:55:40;4.55;;;1.90;;
11604;SDS011;5858;43.076;25.626;2024-02-26T09:58:07;4.35;;;2.05;;
11604;SDS011;5858;43.076;25.626;2024-02-26T10:00:36;7.72;;;2.08;;
11604;SDS011;5858;43.076;25.626;2024-02-26T10:03:05;2.20;;;1.50;;
11604;SDS011;5858;43.076;25.626;2024-02-26T10:05:42;2.15;;;1.90;;
11604;SDS011;5858;43.076;25.626;2024-02-26T10:08:11;5.47;;;1.70;;
11604;SDS011;5858;43.076;25.626;2024-02-26T10:10:47;3.30;;;1.55;;
11604;SDS011;5858;43.076;25.626;2024-02-26T10:13:15;4.32;;;2.58;;
11604;SDS011;5858;43.076;25.626;2024-02-26T10:15:42;3.55;;;1.80;;
11604;SDS011;5858;43.076;25.626;2024-02-26T10:18:09;2.92;;;1.50;;
11604;SDS011;5858;43.076;25.626;2024-02-26T10:20:36;2.65;;;1.30;;
11604;SDS011;5858;43.076;25.626;2024-02-26T10:23:04;3.72;;;1.30;;
11604;SDS011;5858;43.076;25.626;2024-02-26T10:25:40;2.78;;;1.25;;
11604;SDS011;5858;43.076;25.626;2024-02-26T10:28:42;2.53;;;1.30;;
11604;SDS011;5858;43.076;25.626;2024-02-26T10:31:30;3.00;;;1.55;;
11604;SDS011;5858;43.076;25.626;2024-02-26T10:33:59;2.10;;;1.38;;
11604;SDS011;5858;43.076;25.626;2024-02-26T10:36:27;3.08;;;1.40;;
11604;SDS011;5858;43.076;25.626;2024-02-26T10:38:55;1.95;;;1.60;;
11604;SDS011;5858;43.076;25.626;2024-02-26T10:41:23;2.92;;;2.22;;
11604;SDS011;5858;43.076;25.626;2024-02-26T10:43:52;3.50;;;1.67;;
11604;SDS011;5858;43.076;25.626;2024-02-26T10:46:20;4.88;;;1.65;;
11604;SDS011;5858;43.076;25.626;2024-02-26T10:48:50;2.10;;;1.40;;
11604;SDS011;5858;43.076;25.626;2024-02-26T10:51:21;3.53;;;1.33;;
11604;SDS011;5858;43.076;25.626;2024-02-26T10:53:57;2.15;;;1.40;;
11604;SDS011;5858;43.076;25.626;2024-02-26T10:56:35;5.35;;;1.42;;
11604;SDS011;5858;43.076;25.626;2024-02-26T10:59:15;3.38;;;1.58;;
11604;SDS011;5858;43.076;25.626;2024-02-26T11:01:45;3.30;;;1.50;;
11604;SDS011;5858;43.076;25.626;2024-02-26T11:04:14;3.33;;;1.20;;
11604;SDS011;5858;43.076;25.626;2024-02-26T11:06:42;5.15;;;1.55;;
11604;SDS011;5858;43.076;25.626;2024-02-26T11:09:10;4.05;;;1.10;;
11604;SDS011;5858;43.076;25.626;2024-02-26T11:11:40;5.90;;;1.00;;
11604;SDS011;5858;43.076;25.626;2024-02-26T11:14:08;5.50;;;1.35;;
11604;SDS011;5858;43.076;25.626;2024-02-26T11:16:37;8.82;;;1.30;;
11604;SDS011;5858;43.076;25.626;2024-02-26T11:19:08;6.65;;;1.20;;
11604;SDS011;5858;43.076;25.626;2024-02-26T11:21:38;3.53;;;1.27;;
11604;SDS011;5858;43.076;25.626;2024-02-26T11:24:07;2.63;;;0.98;;
11604;SDS011;5858;43.076;25.626;2024-02-26T11:26:39;2.47;;;0.93;;
11604;SDS011;5858;43.076;25.626;2024-02-26T11:29:13;4.70;;;1.50;;
11604;SDS011;5858;43.076;25.626;2024-02-26T11:31:44;3.28;;;1.38;;
11604;SDS011;5858;43.076;25.626;2024-02-26T11:34:23;3.95;;;1.95;;
11604;SDS011;5858;43.076;25.626;2024-02-26T11:36:53;2.72;;;1.38;;
11604;SDS011;5858;43.076;25.626;2024-02-26T11:39:33;1.95;;;1.10;;
11604;SDS011;5858;43.076;25.626;2024-02-26T11:42:06;4.07;;;1.20;;
11604;SDS011;5858;43.076;25.626;2024-02-26T11:45:18;2.67;;;1.50;;
11604;SDS011;5858;43.076;25.626;2024-02-26T11:47:55;1.80;;;1.10;;
11604;SDS011;5858;43.076;25.626;2024-02-26T11:50:38;5.18;;;1.60;;
11604;SDS011;5858;43.076;25.626;2024-02-26T11:53:19;2.70;;;1.15;;
11604;SDS011;5858;43.076;25.626;2024-02-26T11:55:48;3.08;;;1.30;;
11604;SDS011;5858;43.076;25.626;2024-02-26T11:58:17;4.00;;;1.65;;
11604;SDS011;5858;43.076;25.626;2024-02-26T12:00:43;2.63;;;1.30;;
11604;SDS011;5858;43.076;25.626;2024-02-26T12:03:10;3.25;;;1.85;;
11604;SDS011;5858;43.076;25.626;2024-02-26T12:05:38;2.17;;;1.23;;
11604;SDS011;5858;43.076;25.626;2024-02-26T12:08:06;2.35;;;1.60;;
11604;SDS011;5858;43.076;25.626;2024-02-26T12:10:35;3.03;;;1.30;;
11604;SDS011;5858;43.076;25.626;2024-02-26T12:13:05;1.40;;;1.25;;
11604;SDS011;5858;43.076;25.626;2024-02-26T12:15:36;2.90;;;1.40;;
11604;SDS011;5858;43.076;25.626;2024-02-26T12:18:04;3.85;;;1.60;;
11604;SDS011;5858;43.076;25.626;2024-02-26T12:20:32;4.43;;;1.40;;
11604;SDS011;5858;43.076;25.626;2024-02-26T12:23:00;5.05;;;1.67;;
11604;SDS011;5858;43.076;25.626;2024-02-26T12:25:31;3.67;;;1.38;;
11604;SDS011;5858;43.076;25.626;2024-02-26T12:27:59;3.40;;;1.42;;
11604;SDS011;5858;43.076;25.626;2024-02-26T12:30:32;2.63;;;1.10;;
11604;SDS011;5858;43.076;25.626;2024-02-26T12:33:03;2.53;;;1.42;;
11604;SDS011;5858;43.076;25.626;2024-02-26T12:35:32;3.85;;;1.40;;
11604;SDS011;5858;43.076;25.626;2024-02-26T12:37:59;2.35;;;1.77;;
11604;SDS011;5858;43.076;25.626;2024-02-26T12:40:28;3.33;;;1.52;;
11604;SDS011;5858;43.076;25.626;2024-02-26T12:42:54;3.95;;;1.50;;
11604;SDS011;5858;43.076;25.626;2024-02-26T12:45:21;3.75;;;1.60;;
11604;SDS011;5858;43.076;25.626;2024-02-26T12:47:48;4.55;;;1.90;;
11604;SDS011;5858;43.076;25.626;2024-02-26T12:50:17;3.53;;;1.95;;
11604;SDS011;5858;43.076;25.626;2024-02-26T12:52:44;2.33;;;1.40;;
11604;SDS011;5858;43.076;25.626;2024-02-26T12:55:14;3.53;;;1.30;;
11604;SDS011;5858;43.076;25.626;2024-02-26T12:57:43;5.60;;;1.85;;
11604;SDS011;5858;43.076;25.626;2024-02-26T13:00:12;6.53;;;2.10;;
11604;SDS011;5858;43.076;25.626;2024-02-26T13:02:41;3.63;;;1.52;;
11604;SDS011;5858;43.076;25.626;2024-02-26T13:05:10;6.25;;;2.13;;
11604;SDS011;5858;43.076;25.626;2024-02-26T13:07:42;10.38;;;2.40;;
11604;SDS011;5858;43.076;25.626;2024-02-26T13:10:09;6.68;;;1.85;;
11604;SDS011;5858;43.076;25.626;2024-02-26T13:12:38;3.20;;;1.42;;
11604;SDS011;5858;43.076;25.626;2024-02-26T13:15:13;2.28;;;1.50;;
11604;SDS011;5858;43.076;25.626;2024-02-26T13:17:41;4.03;;;1.63;;
11604;SDS011;5858;43.076;25.626;2024-02-26T13:20:08;1.88;;;1.35;;
11604;SDS011;5858;43.076;25.626;2024-02-26T13:22:46;5.85;;;2.00;;
11604;SDS011;5858;43.076;25.626;2024-02-26T13:25:13;4.53;;;1.50;;
11604;SDS011;5858;43.076;25.626;2024-02-26T13:27:46;4.32;;;1.55;;
11604;SDS011;5858;43.076;25.626;2024-02-26T13:30:17;2.22;;;1.80;;
11604;SDS011;5858;43.076;25.626;2024-02-26T13:32:49;2.42;;;1.67;;
11604;SDS011;5858;43.076;25.626;2024-02-26T13:35:25;4.93;;;1.80;;
11604;SDS011;5858;43.076;25.626;2024-02-26T13:37:59;5.10;;;1.75;;
11604;SDS011;5858;43.076;25.626;2024-02-26T13:40:29;6.35;;;1.95;;
11604;SDS011;5858;43.076;25.626;2024-02-26T13:43:00;4.75;;;1.65;;
11604;SDS011;5858;43.076;25.626;2024-02-26T13:45:27;3.03;;;1.77;;
11604;SDS011;5858;43.076;25.626;2024-02-26T13:47:55;8.07;;;1.90;;
11604;SDS011;5858;43.076;25.626;2024-02-26T13:50:28;2.63;;;1.98;;
11604;SDS011;5858;43.076;25.626;2024-02-26T13:52:59;2.85;;;1.77;;
11604;SDS011;5858;43.076;25.626;2024-02-26T13:55:39;7.10;;;2.60;;
11604;SDS011;5858;43.076;25.626;2024-02-26T13:58:11;3.33;;;2.10;;
11604;SDS011;5858;43.076;25.626;2024-02-26T14:00:52;4.13;;;1.80;;
11604;SDS011;5858;43.076;25.626;2024-02-26T14:03:20;3.65;;;1.88;;
11604;SDS011;5858;43.076;25.626;2024-02-26T14:05:52;4.55;;;1.80;;
11604;SDS011;5858;43.076;25.626;2024-02-26T14:08:25;4.53;;;1.85;;
11604;SDS011;5858;43.076;25.626;2024-02-26T14:10:52;4.40;;;1.88;;
11604;SDS011;5858;43.076;25.626;2024-02-26T14:13:20;4.85;;;1.95;;
11604;SDS011;5858;43.076;25.626;2024-02-26T14:15:50;3.80;;;2.13;;
11604;SDS011;5858;43.076;25.626;2024-02-26T14:18:17;8.00;;;2.40;;
11604;SDS011;5858;43.076;25.626;2024-02-26T14:20:45;6.53;;;2.50;;
11604;SDS011;5858;43.076;25.626;2024-02-26T14:23:11;9.30;;;2.78;;
11604;SDS011;5858;43.076;25.626;2024-02-26T14:25:41;4.80;;;2.47;;
11604;SDS011;5858;43.076;25.626;2024-02-26T14:28:11;4.43;;;2.40;;
11604;SDS011;5858;43.076;25.626;2024-02-26T14:30:38;5.75;;;2.53;;
11604;SDS011;5858;43.076;25.626;2024-02-26T14:33:05;3.78;;;2.60;;
11604;SDS011;5858;43.076;25.626;2024-02-26T14:35:34;4.32;;;2.83;;
11604;SDS011;5858;43.076;25.626;2024-02-26T14:38:01;4.88;;;3.17;;
11604;SDS011;5858;43.076;25.626;2024-02-26T14:40:28;3.85;;;3.00;;
11604;SDS011;5858;43.076;25.626;2024-02-26T14:42:58;5.82;;;3.20;;
11604;SDS011;5858;43.076;25.626;2024-02-26T14:45:26;4.28;;;2.83;;
11604;SDS011;5858;43.076;25.626;2024-02-26T14:47:53;7.70;;;3.85;;
11604;SDS011;5858;43.076;25.626;2024-02-26T14:50:20;3.85;;;2.63;;
11604;SDS011;5858;43.076;25.626;2024-02-26T14:52:47;7.90;;;2.95;;
11604;SDS011;5858;43.076;25.626;2024-02-26T14:55:21;5.72;;;3.13;;
11604;SDS011;5858;43.076;25.626;2024-02-26T14:57:48;5.38;;;2.95;;
11604;SDS011;5858;43.076;25.626;2024-02-26T15:00:17;7.35;;;3.13;;
11604;SDS011;5858;43.076;25.626;2024-02-26T15:02:46;5.00;;;3.50;;
11604;SDS011;5858;43.076;25.626;2024-02-26T15:05:13;7.00;;;3.85;;
11604;SDS011;5858;43.076;25.626;2024-02-26T15:07:42;8.98;;;4.00;;
11604;SDS011;5858;43.076;25.626;2024-02-26T15:10:09;8.20;;;3.92;;
11604;SDS011;5858;43.076;25.626;2024-02-26T15:12:37;5.65;;;3.88;;
11604;SDS011;5858;43.076;25.626;2024-02-26T15:15:08;8.95;;;4.18;;
11604;SDS011;5858;43.076;25.626;2024-02-26T15:17:39;7.65;;;4.85;;
11604;SDS011;5858;43.076;25.626;2024-02-26T15:21:12;10.75;;;4.63;;
11604;SDS011;5858;43.076;25.626;2024-02-26T15:24:01;8.80;;;5.32;;
11604;SDS011;5858;43.076;25.626;2024-02-26T15:26:29;7.80;;;4.10;;
11604;SDS011;5858;43.076;25.626;2024-02-26T15:29:01;6.68;;;4.45;;
11604;SDS011;5858;43.076;25.626;2024-02-26T15:31:28;8.55;;;4.63;;
11604;SDS011;5858;43.076;25.626;2024-02-26T15:33:58;8.60;;;4.68;;
11604;SDS011;5858;43.076;25.626;2024-02-26T15:36:25;10.38;;;4.03;;
11604;SDS011;5858;43.076;25.626;2024-02-26T15:38:56;8.93;;;4.28;;
11604;SDS011;5858;43.076;25.626;2024-02-26T15:41:27;10.75;;;4.32;;
11604;SDS011;5858;43.076;25.626;2024-02-26T15:43:59;7.50;;;3.65;;
11604;SDS011;5858;43.076;25.626;2024-02-26T15:46:26;8.10;;;4.40;;
11604;SDS011;5858;43.076;25.626;2024-02-26T15:48:54;9.38;;;5.63;;
11604;SDS011;5858;43.076;25.626;2024-02-26T15:51:26;9.70;;;5.55;;
11604;SDS011;5858;43.076;25.626;2024-02-26T15:54:03;9.10;;;5.63;;
11604;SDS011;5858;43.076;25.626;2024-02-26T15:56:30;9.07;;;5.50;;
11604;SDS011;5858;43.076;25.626;2024-02-26T15:58:57;7.00;;;4.45;;
11604;SDS011;5858;43.076;25.626;2024-02-26T16:01:28;7.00;;;4.78;;
11604;SDS011;5858;43.076;25.626;2024-02-26T16:03:55;6.95;;;4.97;;
11604;SDS011;5858;43.076;25.626;2024-02-26T16:06:25;9.55;;;4.97;;
11604;SDS011;5858;43.076;25.626;2024-02-26T16:08:59;8.20;;;5.53;;
11604;SDS011;5858;43.076;25.626;2024-02-26T16:11:32;10.85;;;5.75;;
11604;SDS011;5858;43.076;25.626;2024-02-26T16:14:07;10.75;;;5.72;;
11604;SDS011;5858;43.076;25.626;2024-02-26T16:16:42;10.23;;;5.32;;
11604;SDS011;5858;43.076;25.626;2024-02-26T16:19:16;9.52;;;5.03;;
11604;SDS011;5858;43.076;25.626;2024-02-26T16:21:48;16.08;;;5.55;;
11604;SDS011;5858;43.076;25.626;2024-02-26T16:24:29;9.25;;;4.63;;
11604;SDS011;5858;43.076;25.626;2024-02-26T16:27:01;12.23;;;4.47;;
11604;SDS011;5858;43.076;25.626;2024-02-26T16:29:28;10.65;;;4.57;;
11604;SDS011;5858;43.076;25.626;2024-02-26T16:31:55;14.73;;;4.97;;
11604;SDS011;5858;43.076;25.626;2024-02-26T16:34:23;9.30;;;4.25;;
11604;SDS011;5858;43.076;25.626;2024-02-26T16:36:51;7.88;;;4.38;;
11604;SDS011;5858;43.076;25.626;2024-02-26T16:39:18;9.97;;;5.13;;
11604;SDS011;5858;43.076;25.626;2024-02-26T16:41:46;12.67;;;5.67;;
11604;SDS011;5858;43.076;25.626;2024-02-26T16:44:12;12.00;;;6.00;;
11604;SDS011;5858;43.076;25.626;2024-02-26T16:46:39;15.33;;;6.80;;
11604;SDS011;5858;43.076;25.626;2024-02-26T16:49:07;19.93;;;10.80;;
11604;SDS011;5858;43.076;25.626;2024-02-26T16:51:36;32.40;;;15.93;;
11604;SDS011;5858;43.076;25.626;2024-02-26T16:54:07;67.17;;;30.47;;
11604;SDS011;5858;43.076;25.626;2024-02-26T16:56:34;39.63;;;19.17;;
11604;SDS011;5858;43.076;25.626;2024-02-26T16:59:01;32.03;;;17.53;;
11604;SDS011;5858;43.076;25.626;2024-02-26T17:01:28;25.63;;;15.63;;
11604;SDS011;5858;43.076;25.626;2024-02-26T17:03:56;28.87;;;13.67;;
11604;SDS011;5858;43.076;25.626;2024-02-26T17:06:23;34.67;;;14.83;;
11604;SDS011;5858;43.076;25.626;2024-02-26T17:08:50;34.60;;;12.97;;
11604;SDS011;5858;43.076;25.626;2024-02-26T17:11:22;27.97;;;12.47;;
11604;SDS011;5858;43.076;25.626;2024-02-26T17:13:57;30.10;;;13.87;;
11604;SDS011;5858;43.076;25.626;2024-02-26T17:16:26;25.07;;;12.67;;
11604;SDS011;5858;43.076;25.626;2024-02-26T17:18:55;27.93;;;11.87;;
11604;SDS011;5858;43.076;25.626;2024-02-26T17:21:23;16.13;;;9.10;;
11604;SDS011;5858;43.076;25.626;2024-02-26T17:23:51;23.53;;;8.13;;
11604;SDS011;5858;43.076;25.626;2024-02-26T17:26:22;22.17;;;8.13;;
11604;SDS011;5858;43.076;25.626;2024-02-26T17:28:58;20.60;;;8.03;;
11604;SDS011;5858;43.076;25.626;2024-02-26T17:31:31;19.07;;;7.40;;
11604;SDS011;5858;43.076;25.626;2024-02-26T17:34:10;18.03;;;7.67;;
11604;SDS011;5858;43.076;25.626;2024-02-26T17:36:37;18.00;;;7.97;;
11604;SDS011;5858;43.076;25.626;2024-02-26T17:39:05;21.20;;;7.03;;
11604;SDS011;5858;43.076;25.626;2024-02-26T17:41:38;9.87;;;5.37;;
11604;SDS011;5858;43.076;25.626;2024-02-26T17:44:05;11.83;;;6.07;;
11604;SDS011;5858;43.076;25.626;2024-02-26T17:46:32;11.13;;;5.77;;
11604;SDS011;5858;43.076;25.626;2024-02-26T17:49:00;18.53;;;7.93;;
11604;SDS011;5858;43.076;25.626;2024-02-26T17:51:27;13.00;;;7.30;;
11604;SDS011;5858;43.076;25.626;2024-02-26T17:53:54;26.67;;;12.60;;
11604;SDS011;5858;43.076;25.626;2024-02-26T17:56:21;26.23;;;13.67;;
11604;SDS011;5858;43.076;25.626;2024-02-26T17:58:50;29.63;;;12.40;;
11604;SDS011;5858;43.076;25.626;2024-02-26T18:01:17;28.17;;;13.83;;
11604;SDS011;5858;43.076;25.626;2024-02-26T18:03:44;33.57;;;15.80;;
11604;SDS011;5858;43.076;25.626;2024-02-26T18:06:12;20.40;;;12.70;;
11604;SDS011;5858;43.076;25.626;2024-02-26T18:08:39;27.97;;;11.47;;
11604;SDS011;5858;43.076;25.626;2024-02-26T18:11:07;20.27;;;8.37;;
11604;SDS011;5858;43.076;25.626;2024-02-26T18:13:35;20.40;;;8.53;;
11604;SDS011;5858;43.076;25.626;2024-02-26T18:16:06;29.87;;;14.50;;
11604;SDS011;5858;43.076;25.626;2024-02-26T18:18:33;22.90;;;13.37;;
11604;SDS011;5858;43.076;25.626;2024-02-26T18:21:01;23.43;;;12.30;;
11604;SDS011;5858;43.076;25.626;2024-02-26T18:23:29;23.70;;;11.50;;
11604;SDS011;5858;43.076;25.626;2024-02-26T18:25:57;18.97;;;9.03;;
11604;SDS011;5858;43.076;25.626;2024-02-26T18:28:29;20.63;;;8.67;;
11604;SDS011;5858;43.076;25.626;2024-02-26T18:30:56;19.87;;;9.03;;
11604;SDS011;5858;43.076;25.626;2024-02-26T18:33:26;21.67;;;10.20;;
11604;SDS011;5858;43.076;25.626;2024-02-26T18:35:54;17.07;;;9.33;;
11604;SDS011;5858;43.076;25.626;2024-02-26T18:38:21;18.90;;;9.73;;
11604;SDS011;5858;43.076;25.626;2024-02-26T18:40:48;21.13;;;10.67;;
11604;SDS011;5858;43.076;25.626;2024-02-26T18:43:18;22.80;;;11.27;;
11604;SDS011;5858;43.076;25.626;2024-02-26T18:45:45;20.73;;;10.53;;
11604;SDS011;5858;43.076;25.626;2024-02-26T18:48:12;14.90;;;8.77;;
11604;SDS011;5858;43.076;25.626;2024-02-26T18:50:42;15.63;;;8.37;;
11604;SDS011;5858;43.076;25.626;2024-02-26T18:53:11;13.93;;;7.40;;
11604;SDS011;5858;43.076;25.626;2024-02-26T18:55:38;11.43;;;7.30;;
11604;SDS011;5858;43.076;25.626;2024-02-26T18:58:05;10.83;;;6.37;;
11604;SDS011;5858;43.076;25.626;2024-02-26T19:00:33;10.30;;;6.27;;
11604;SDS011;5858;43.076;25.626;2024-02-26T19:03:02;18.63;;;8.83;;
11604;SDS011;5858;43.076;25.626;2024-02-26T19:05:30;15.87;;;8.63;;
11604;SDS011;5858;43.076;25.626;2024-02-26T19:07:59;13.70;;;7.30;;
11604;SDS011;5858;43.076;25.626;2024-02-26T19:10:26;16.43;;;8.57;;
11604;SDS011;5858;43.076;25.626;2024-02-26T19:12:53;22.17;;;9.23;;
11604;SDS011;5858;43.076;25.626;2024-02-26T19:15:26;16.50;;;9.57;;
11604;SDS011;5858;43.076;25.626;2024-02-26T19:17:53;22.43;;;10.13;;
11604;SDS011;5858;43.076;25.626;2024-02-26T19:20:22;17.73;;;9.37;;
11604;SDS011;5858;43.076;25.626;2024-02-26T19:22:49;17.47;;;10.63;;
11604;SDS011;5858;43.076;25.626;2024-02-26T19:25:19;26.87;;;10.53;;
11604;SDS011;5858;43.076;25.626;2024-02-26T19:27:46;16.70;;;9.27;;
11604;SDS011;5858;43.076;25.626;2024-02-26T19:30:17;18.67;;;9.50;;
11604;SDS011;5858;43.076;25.626;2024-02-26T19:32:44;16.97;;;9.20;;
11604;SDS011;5858;43.076;25.626;2024-02-26T19:35:11;17.93;;;10.37;;
11604;SDS011;5858;43.076;25.626;2024-02-26T19:37:38;14.70;;;9.43;;
11604;SDS011;5858;43.076;25.626;2024-02-26T19:40:08;20.73;;;10.37;;
11604;SDS011;5858;43.076;25.626;2024-02-26T19:42:41;25.60;;;11.37;;
11604;SDS011;5858;43.076;25.626;2024-02-26T19:45:09;21.07;;;10.70;;
11604;SDS011;5858;43.076;25.626;2024-02-26T19:47:37;17.33;;;9.50;;
11604;SDS011;5858;43.076;25.626;2024-02-26T19:50:06;23.13;;;12.47;;
11604;SDS011;5858;43.076;25.626;2024-02-26T19:52:36;17.00;;;10.13;;
11604;SDS011;5858;43.076;25.626;2024-02-26T19:55:03;16.80;;;9.40;;
11604;SDS011;5858;43.076;25.626;2024-02-26T19:57:32;15.90;;;8.87;;
11604;SDS011;5858;43.076;25.626;2024-02-26T20:00:01;24.73;;;9.87;;
11604;SDS011;5858;43.076;25.626;2024-02-26T20:02:28;17.90;;;9.93;;
11604;SDS011;5858;43.076;25.626;2024-02-26T20:05:00;19.07;;;10.70;;
11604;SDS011;5858;43.076;25.626;2024-02-26T20:07:27;20.70;;;10.17;;
11604;SDS011;5858;43.076;25.626;2024-02-26T20:09:56;16.20;;;9.50;;
11604;SDS011;5858;43.076;25.626;2024-02-26T20:12:28;16.43;;;9.10;;
11604;SDS011;5858;43.076;25.626;2024-02-26T20:14:55;23.67;;;11.10;;
11604;SDS011;5858;43.076;25.626;2024-02-26T20:17:25;13.03;;;8.97;;
11604;SDS011;5858;43.076;25.626;2024-02-26T20:19:52;13.20;;;8.23;;
11604;SDS011;5858;43.076;25.626;2024-02-26T20:22:22;16.03;;;10.00;;
11604;SDS011;5858;43.076;25.626;2024-02-26T20:24:50;18.50;;;9.20;;
11604;SDS011;5858;43.076;25.626;2024-02-26T20:27:20;18.43;;;9.87;;
11604;SDS011;5858;43.076;25.626;2024-02-26T20:29:49;26.73;;;11.77;;
11604;SDS011;5858;43.076;25.626;2024-02-26T20:32:20;21.70;;;10.10;;
11604;SDS011;5858;43.076;25.626;2024-02-26T20:34:50;19.17;;;9.87;;
11604;SDS011;5858;43.076;25.626;2024-02-26T20:37:23;19.63;;;9.10;;
11604;SDS011;5858;43.076;25.626;2024-02-26T20:39:50;17.30;;;10.80;;